createdAt,value
2023-01-04T00:01:37.149Z,25.17
2023-01-04T00:04:04.612Z,25.17
2023-01-04T00:06:40.804Z,24.98
2023-01-04T00:09:08.368Z,25.55
2023-01-04T00:11:41.810Z,25.83
2023-01-04T00:14:11.952Z,28.02
2023-01-04T00:16:39.461Z,25.25
2023-01-04T00:19:07.717Z,23.65
2023-01-04T00:21:35.173Z,26.67
2023-01-04T00:24:02.743Z,26.20
2023-01-04T00:26:34.470Z,27.23
2023-01-04T00:29:07.245Z,27.95
2023-01-04T00:31:36.289Z,27.27
2023-01-04T00:34:07.028Z,26.20
2023-01-04T00:36:35.301Z,27.92
2023-01-04T00:41:59.766Z,25.95
2023-01-04T00:44:31.047Z,26.40
2023-01-04T00:47:00.141Z,26.23
2023-01-04T00:49:31.327Z,27.65
2023-01-04T00:52:00.355Z,24.38
2023-01-04T00:54:28.789Z,25.95
2023-01-04T00:56:56.217Z,25.23
2023-01-04T00:59:24.985Z,25.43
2023-01-04T01:01:52.726Z,25.73
2023-01-04T01:04:25.536Z,25.05
2023-01-04T01:06:53.444Z,24.83
2023-01-04T01:09:23.158Z,23.85
2023-01-04T01:11:53.770Z,22.77
2023-01-04T01:14:25.522Z,23.33
2023-01-04T01:16:57.347Z,23.50
2023-01-04T01:19:29.776Z,24.13
2023-01-04T01:21:58.501Z,22.80
2023-01-04T01:24:27.538Z,23.95
2023-01-04T01:26:56.646Z,23.48
2023-01-04T01:29:24.770Z,22.75
2023-01-04T01:31:52.248Z,21.60
2023-01-04T01:34:20.896Z,23.10
2023-01-04T01:36:48.541Z,24.70
2023-01-04T01:39:16.153Z,24.27
2023-01-04T01:41:46.476Z,26.40
2023-01-04T01:44:13.734Z,25.35
2023-01-04T01:46:50.663Z,25.05
2023-01-04T01:49:39.981Z,24.13
2023-01-04T01:52:18.410Z,24.48
2023-01-04T01:54:55.459Z,24.98
2023-01-04T01:57:30.816Z,23.80
2023-01-04T02:00:02.392Z,25.98
2023-01-04T02:02:30.193Z,24.00
2023-01-04T02:05:02.489Z,23.48
2023-01-04T02:07:30.803Z,23.42
2023-01-04T02:09:59.265Z,24.05
2023-01-04T02:14:54.249Z,23.08
2023-01-04T02:17:49.748Z,22.98
2023-01-04T02:20:35.707Z,21.35
2023-01-04T02:23:39.198Z,20.17
2023-01-04T02:26:21.823Z,21.13
2023-01-04T02:29:21.775Z,20.80
2023-01-04T02:31:59.144Z,19.63
2023-01-04T02:34:58.477Z,20.25
2023-01-04T02:38:39.558Z,20.38
2023-01-04T02:41:42.023Z,19.58
2023-01-04T02:44:37.752Z,19.67
2023-01-04T02:47:11.559Z,20.17
2023-01-04T02:50:04.315Z,19.90
2023-01-04T02:52:34.220Z,19.40
2023-01-04T02:55:06.675Z,17.98
2023-01-04T02:58:01.959Z,18.73
2023-01-04T03:01:18.725Z,15.95
2023-01-04T03:04:26.276Z,17.45
2023-01-04T03:07:38.597Z,17.77
2023-01-04T03:10:22.936Z,16.73
2023-01-04T03:13:07.045Z,15.32
2023-01-04T03:15:40.508Z,15.52
2023-01-04T03:18:18.304Z,16.00
2023-01-04T03:20:49.366Z,17.85
2023-01-04T03:23:41.781Z,18.38
2023-01-04T03:26:57.282Z,18.77
2023-01-04T03:30:11.378Z,19.83
2023-01-04T03:33:22.993Z,17.48
2023-01-04T03:36:11.421Z,17.25
2023-01-04T03:39:51.107Z,16.52
2023-01-04T03:43:03.342Z,17.23
2023-01-04T03:46:02.380Z,17.13
2023-01-04T03:48:42.416Z,16.85
2023-01-04T03:51:26.973Z,17.73
2023-01-04T03:54:20.038Z,17.45
2023-01-04T03:56:50.517Z,17.30
2023-01-04T03:59:18.137Z,16.33
2023-01-04T04:01:46.821Z,17.58
2023-01-04T04:04:34.026Z,17.90
2023-01-04T04:07:22.647Z,17.02
2023-01-04T04:09:50.335Z,18.15
2023-01-04T04:12:17.698Z,16.92
2023-01-04T04:14:46.455Z,16.17
2023-01-04T04:17:13.929Z,16.52
2023-01-04T04:19:43.680Z,15.40
2023-01-04T04:22:10.976Z,15.88
2023-01-04T04:24:38.370Z,15.90
2023-01-04T04:27:06.011Z,14.43
2023-01-04T04:29:33.473Z,17.02
2023-01-04T04:32:01.978Z,14.83
2023-01-04T04:34:29.706Z,15.10
2023-01-04T04:36:58.183Z,14.98
2023-01-04T04:39:25.545Z,14.82
2023-01-04T04:41:52.976Z,15.50
2023-01-04T04:44:21.929Z,14.70
2023-01-04T04:46:50.110Z,15.23
2023-01-04T04:49:19.609Z,14.63
2023-01-04T04:51:47.484Z,14.40
2023-01-04T04:54:21.056Z,15.32
2023-01-04T04:56:50.356Z,14.55
2023-01-04T04:59:18.267Z,15.18
2023-01-04T05:01:45.923Z,15.30
2023-01-04T05:04:20.005Z,15.15
2023-01-04T05:06:51.361Z,15.93
2023-01-04T05:09:19.226Z,15.02
2023-01-04T05:12:05.824Z,16.45
2023-01-04T05:14:33.377Z,15.30
2023-01-04T05:17:01.422Z,16.08
2023-01-04T05:19:29.042Z,14.98
2023-01-04T05:21:56.368Z,15.03
2023-01-04T05:24:23.724Z,14.50
2023-01-04T05:26:51.067Z,16.15
2023-01-04T05:29:37.008Z,15.98
2023-01-04T05:32:04.823Z,15.80
2023-01-04T05:34:32.170Z,16.25
2023-01-04T05:36:59.627Z,16.60
2023-01-04T05:39:26.970Z,16.70
2023-01-04T05:42:13.095Z,15.73
2023-01-04T05:44:46.885Z,14.93
2023-01-04T05:47:16.026Z,16.48
2023-01-04T05:49:47.495Z,15.95
2023-01-04T05:52:16.347Z,15.75
2023-01-04T05:54:44.016Z,16.67
2023-01-04T05:57:15.414Z,16.20
2023-01-04T05:59:43.044Z,17.35
2023-01-04T06:02:25.333Z,16.33
2023-01-04T06:04:59.211Z,16.58
2023-01-04T06:07:30.333Z,16.85
2023-01-04T06:09:58.776Z,16.17
2023-01-04T06:14:56.722Z,14.15
2023-01-04T06:17:24.871Z,13.95
2023-01-04T06:19:52.251Z,16.40
2023-01-04T06:22:21.877Z,15.65
2023-01-04T06:24:49.812Z,14.32
2023-01-04T06:27:18.798Z,14.63
2023-01-04T06:29:47.380Z,15.93
2023-01-04T06:32:15.142Z,14.10
2023-01-04T06:34:45.230Z,14.57
2023-01-04T06:37:12.608Z,14.80
2023-01-04T06:39:40.239Z,14.70
2023-01-04T06:42:27.589Z,14.80
2023-01-04T06:44:57.671Z,15.18
2023-01-04T06:47:25.496Z,15.32
2023-01-04T06:49:53.217Z,16.35
2023-01-04T06:52:20.848Z,15.63
2023-01-04T06:54:48.359Z,15.88
2023-01-04T06:57:15.735Z,15.25
2023-01-04T06:59:43.463Z,14.23
2023-01-04T07:02:17.040Z,14.18
2023-01-04T07:04:46.264Z,14.02
2023-01-04T07:07:23.788Z,14.20
2023-01-04T07:09:51.152Z,15.70
2023-01-04T07:12:18.977Z,14.55
2023-01-04T07:14:46.480Z,14.43
2023-01-04T07:17:14.798Z,14.55
2023-01-04T07:22:09.611Z,15.05
2023-01-04T07:24:37.790Z,15.73
2023-01-04T07:29:32.702Z,15.77
2023-01-04T07:32:08.984Z,15.60
2023-01-04T07:34:41.185Z,15.65
2023-01-04T07:37:09.686Z,18.17
2023-01-04T07:39:39.014Z,17.17
2023-01-04T07:42:08.133Z,15.82
2023-01-04T07:44:35.530Z,17.98
2023-01-04T07:47:04.497Z,20.20
2023-01-04T07:49:33.478Z,19.10
2023-01-04T07:52:02.169Z,19.33
2023-01-04T07:54:29.616Z,19.00
2023-01-04T07:56:57.180Z,19.25
2023-01-04T07:59:31.661Z,16.98
2023-01-04T08:02:00.702Z,19.02
2023-01-04T08:04:34.528Z,18.02
2023-01-04T08:07:03.013Z,18.08
2023-01-04T08:09:44.780Z,19.10
2023-01-04T08:12:16.522Z,19.85
2023-01-04T08:14:44.041Z,20.38
2023-01-04T08:17:12.556Z,21.20
2023-01-04T08:19:40.720Z,19.90
2023-01-04T08:22:08.146Z,20.83
2023-01-04T08:24:35.460Z,20.63
2023-01-04T08:27:02.855Z,22.75
2023-01-04T08:29:34.943Z,21.63
2023-01-04T08:32:04.496Z,23.25
2023-01-04T08:34:32.749Z,21.50
2023-01-04T08:37:02.379Z,19.50
2023-01-04T08:39:33.509Z,19.92
2023-01-04T08:42:09.987Z,20.15
2023-01-04T08:44:46.590Z,21.30
2023-01-04T08:47:14.008Z,23.92
2023-01-04T08:49:43.134Z,24.42
2023-01-04T08:52:12.311Z,28.35
2023-01-04T08:54:39.899Z,28.30
2023-01-04T08:57:09.201Z,28.35
2023-01-04T08:59:39.677Z,29.17
2023-01-04T09:02:28.691Z,29.83
2023-01-04T09:05:02.266Z,26.33
2023-01-04T09:07:58.086Z,27.10
2023-01-04T09:10:25.952Z,24.80
2023-01-04T09:12:55.453Z,24.33
2023-01-04T09:15:23.869Z,22.92
2023-01-04T09:20:38.660Z,20.83
2023-01-04T09:23:07.881Z,21.30
2023-01-04T09:25:40.326Z,18.95
2023-01-04T09:28:07.852Z,19.05
2023-01-04T09:30:35.924Z,18.63
2023-01-04T09:33:03.893Z,21.13
2023-01-04T09:35:33.451Z,19.38
2023-01-04T09:38:01.015Z,18.92
2023-01-04T09:41:11.530Z,18.10
2023-01-04T09:44:17.917Z,18.10
2023-01-04T09:46:50.443Z,16.58
2023-01-04T09:49:45.837Z,18.58
2023-01-04T09:52:23.379Z,18.67
2023-01-04T09:55:37.601Z,17.13
2023-01-04T09:58:23.980Z,15.50
2023-01-04T10:01:16.430Z,14.15
2023-01-04T10:04:31.823Z,16.55
2023-01-04T10:07:04.671Z,15.68
2023-01-04T10:09:34.136Z,14.45
2023-01-04T10:12:44.323Z,14.23
2023-01-04T10:15:41.983Z,15.07
2023-01-04T10:19:43.508Z,13.23
2023-01-04T10:21:36.370Z,13.88
2023-01-04T10:24:50.347Z,12.95
2023-01-04T10:27:42.724Z,12.02
2023-01-04T10:30:23.696Z,13.15
2023-01-04T10:33:20.815Z,12.98
2023-01-04T10:35:52.297Z,12.68
2023-01-04T10:38:36.662Z,11.70
2023-01-04T10:41:13.365Z,14.13
2023-01-04T10:44:12.101Z,14.23
2023-01-04T10:46:54.738Z,13.15
2023-01-04T10:50:07.967Z,12.43
2023-01-04T10:53:04.190Z,14.57
2023-01-04T10:56:25.209Z,14.57
2023-01-04T10:58:56.444Z,13.48
2023-01-04T11:01:44.656Z,14.88
2023-01-04T11:04:39.933Z,14.90
2023-01-04T11:07:17.620Z,17.00
2023-01-04T11:09:52.971Z,20.90
2023-01-04T11:12:27.037Z,25.85
2023-01-04T11:14:55.751Z,25.95
2023-01-04T11:17:26.065Z,25.92
2023-01-04T11:19:55.650Z,24.08
2023-01-04T11:23:09.558Z,24.63
2023-01-04T11:26:25.502Z,25.05
2023-01-04T11:29:02.906Z,25.48
2023-01-04T11:32:30.348Z,25.20
2023-01-04T11:37:34.315Z,26.67
2023-01-04T11:40:21.501Z,26.45
2023-01-04T11:43:18.639Z,30.47
2023-01-04T11:46:01.863Z,35.70
2023-01-04T11:48:47.460Z,35.42
2023-01-04T11:51:32.453Z,36.95
2023-01-04T11:54:15.219Z,36.28
2023-01-04T11:57:20.765Z,34.20
2023-01-04T12:00:14.561Z,35.80
2023-01-04T12:03:00.912Z,33.08
2023-01-04T12:05:34.938Z,36.87
2023-01-04T12:08:02.441Z,39.97
2023-01-04T12:10:32.386Z,34.80
2023-01-04T12:13:05.184Z,30.30
2023-01-04T12:16:04.882Z,28.27
2023-01-04T12:18:41.902Z,27.48
2023-01-04T12:21:23.489Z,28.40
2023-01-04T12:23:56.453Z,24.45
2023-01-04T12:26:24.563Z,29.02
2023-01-04T12:29:25.744Z,27.35
2023-01-04T12:32:21.997Z,26.13
2023-01-04T12:34:51.699Z,26.27
2023-01-04T12:37:46.190Z,25.77
2023-01-04T12:40:47.957Z,27.58
2023-01-04T12:43:26.125Z,32.53
2023-01-04T12:47:09.896Z,31.98
2023-01-04T12:50:01.649Z,35.97
2023-01-04T12:52:37.763Z,39.17
2023-01-04T12:55:36.795Z,38.38
2023-01-04T12:58:58.182Z,35.83
2023-01-04T13:01:29.991Z,42.17
2023-01-04T13:04:06.045Z,47.63
2023-01-04T13:06:44.965Z,43.90
2023-01-04T13:09:24.196Z,47.58
2023-01-04T13:12:22.861Z,44.58
2023-01-04T13:15:19.303Z,41.05
2023-01-04T13:17:52.375Z,40.30
2023-01-04T13:20:26.557Z,39.00
2023-01-04T13:22:58.142Z,37.50
2023-01-04T13:25:26.437Z,39.92
2023-01-04T13:30:39.849Z,36.83
2023-01-04T13:33:27.778Z,37.63
2023-01-04T13:36:12.545Z,34.60
2023-01-04T13:38:41.782Z,31.02
2023-01-04T13:41:23.045Z,29.73
2023-01-04T13:45:09.219Z,31.85
2023-01-04T13:47:30.313Z,29.35
2023-01-04T13:50:00.185Z,30.15
2023-01-04T13:52:53.044Z,29.13
2023-01-04T13:55:28.427Z,30.35
2023-01-04T13:58:27.648Z,31.77
2023-01-04T14:01:21.356Z,33.15
2023-01-04T14:04:03.779Z,37.50
2023-01-04T14:06:44.561Z,38.60
2023-01-04T14:09:13.466Z,35.65
2023-01-04T14:14:59.014Z,32.95
2023-01-04T14:17:55.731Z,33.30
2023-01-04T14:20:23.368Z,31.85
2023-01-04T14:23:27.475Z,35.35
2023-01-04T14:25:58.039Z,33.03
2023-01-04T14:28:29.700Z,32.95
2023-01-04T14:31:01.391Z,36.38
2023-01-04T14:33:53.697Z,36.47
2023-01-04T14:36:40.991Z,35.88
2023-01-04T14:39:29.638Z,33.78
2023-01-04T14:41:59.752Z,35.55
2023-01-04T14:44:37.223Z,35.13
2023-01-04T14:47:07.315Z,32.83
2023-01-04T14:49:35.618Z,33.83
2023-01-04T14:52:19.050Z,35.15
2023-01-04T14:54:47.868Z,34.70
2023-01-04T14:57:15.330Z,35.42
2023-01-04T14:59:46.043Z,37.87
2023-01-04T15:02:15.249Z,37.25
2023-01-04T15:04:45.632Z,41.15
2023-01-04T15:07:36.459Z,40.05
2023-01-04T15:10:06.310Z,40.00
2023-01-04T15:12:33.686Z,41.28
2023-01-04T15:15:10.252Z,36.00
2023-01-04T15:17:38.975Z,38.13
2023-01-04T15:20:09.299Z,35.70
2023-01-04T15:22:36.868Z,36.75
2023-01-04T15:25:05.293Z,37.47
2023-01-04T15:30:08.628Z,35.05
2023-01-04T15:32:37.433Z,37.30
2023-01-04T15:35:05.856Z,37.08
2023-01-04T15:37:33.540Z,37.17
2023-01-04T15:40:03.828Z,36.97
2023-01-04T15:42:50.531Z,34.97
2023-01-04T15:45:24.222Z,38.13
2023-01-04T15:47:52.857Z,36.90
2023-01-04T15:50:25.115Z,36.85
2023-01-04T15:52:54.298Z,36.03
2023-01-04T15:55:22.225Z,36.10
2023-01-04T15:57:51.110Z,35.97
2023-01-04T16:00:18.755Z,36.55
2023-01-04T16:02:47.254Z,35.45
2023-01-04T16:05:16.506Z,36.35
2023-01-04T16:07:45.659Z,36.40
2023-01-04T16:10:14.861Z,36.58
2023-01-04T16:12:42.783Z,34.83
2023-01-04T16:15:17.591Z,35.42
2023-01-04T16:17:46.052Z,35.92
2023-01-04T16:20:16.805Z,35.47
2023-01-04T16:22:52.215Z,37.42
2023-01-04T16:25:19.704Z,34.33
2023-01-04T16:27:50.078Z,35.40
2023-01-04T16:30:17.716Z,32.92
2023-01-04T16:32:45.819Z,33.08
2023-01-04T16:35:13.299Z,33.65
2023-01-04T16:37:43.085Z,32.03
2023-01-04T16:40:11.635Z,31.25
2023-01-04T16:42:40.438Z,31.50
2023-01-04T16:45:10.013Z,30.35
2023-01-04T16:47:43.148Z,30.80
2023-01-04T16:50:12.588Z,32.92
2023-01-04T16:52:40.914Z,31.50
2023-01-04T16:55:10.189Z,31.85
2023-01-04T16:57:38.830Z,30.98
2023-01-04T17:00:07.498Z,30.88
2023-01-04T17:02:34.935Z,30.58
2023-01-04T17:05:02.343Z,32.47
2023-01-04T17:07:36.896Z,30.42
2023-01-04T17:10:06.421Z,32.80
2023-01-04T17:12:47.047Z,31.25
2023-01-04T17:18:07.903Z,31.10
2023-01-04T17:20:36.122Z,33.65
2023-01-04T17:23:11.283Z,29.70
2023-01-04T17:25:41.215Z,30.98
2023-01-04T17:28:08.535Z,30.48
2023-01-04T17:30:39.295Z,30.45
2023-01-04T17:33:08.449Z,32.65
2023-01-04T17:35:41.031Z,31.63
2023-01-04T17:38:08.688Z,29.52
2023-01-04T17:40:37.439Z,31.58
2023-01-04T17:43:05.182Z,33.28
2023-01-04T17:45:33.586Z,32.30
2023-01-04T17:48:01.260Z,30.80
2023-01-04T17:50:31.325Z,32.57
2023-01-04T17:52:59.793Z,31.33
2023-01-04T17:55:27.864Z,31.60
2023-01-04T17:57:55.389Z,32.40
2023-01-04T18:00:22.815Z,33.40
2023-01-04T18:02:50.302Z,32.53
2023-01-04T18:05:17.995Z,32.97
2023-01-04T18:07:45.484Z,38.17
2023-01-04T18:10:21.361Z,34.58
2023-01-04T18:13:00.784Z,34.80
2023-01-04T18:15:28.656Z,36.42
2023-01-04T18:17:56.759Z,47.08
2023-01-04T18:20:27.608Z,43.72
2023-01-04T18:22:56.343Z,42.10
2023-01-04T18:25:27.411Z,38.75
2023-01-04T18:28:01.188Z,37.42
2023-01-04T18:30:28.603Z,34.72
2023-01-04T18:32:57.445Z,36.43
2023-01-04T18:35:25.269Z,37.00
2023-01-04T18:37:52.741Z,34.53
2023-01-04T18:40:20.214Z,30.93
2023-01-04T18:42:52.910Z,31.70
2023-01-04T18:45:20.813Z,30.90
2023-01-04T18:47:48.309Z,30.55
2023-01-04T18:50:17.918Z,28.85
2023-01-04T18:52:45.780Z,28.17
2023-01-04T18:55:15.868Z,29.13
2023-01-04T18:57:43.228Z,25.63
2023-01-04T19:00:13.182Z,24.50
2023-01-04T19:02:40.916Z,24.13
2023-01-04T19:05:10.536Z,26.48
2023-01-04T19:07:39.504Z,24.02
2023-01-04T19:10:07.777Z,24.00
2023-01-04T19:15:10.690Z,19.95
2023-01-04T19:17:39.807Z,20.45
2023-01-04T19:20:07.859Z,20.40
2023-01-04T19:22:35.488Z,19.55
2023-01-04T19:25:03.478Z,19.75
2023-01-04T19:27:31.952Z,19.20
2023-01-04T19:30:00.193Z,19.08
2023-01-04T19:32:33.206Z,20.10
2023-01-04T19:35:01.241Z,18.92
2023-01-04T19:37:30.154Z,18.03
2023-01-04T19:39:57.962Z,18.20
2023-01-04T19:42:25.273Z,19.08
2023-01-04T19:44:52.615Z,19.33
2023-01-04T19:47:20.113Z,19.60
2023-01-04T19:49:49.170Z,18.90
2023-01-04T19:52:16.629Z,17.23
2023-01-04T19:54:46.033Z,17.92
2023-01-04T19:57:13.363Z,17.50
2023-01-04T19:59:40.642Z,16.95
2023-01-04T20:02:10.906Z,16.13
2023-01-04T20:04:38.592Z,16.25
2023-01-04T20:07:06.242Z,16.27
2023-01-04T20:09:34.661Z,14.13
2023-01-04T20:12:02.476Z,15.60
2023-01-04T20:14:31.290Z,15.55
2023-01-04T20:16:58.773Z,14.80
2023-01-04T20:19:26.964Z,15.05
2023-01-04T20:21:54.392Z,14.90
2023-01-04T20:24:23.357Z,15.00
2023-01-04T20:26:50.709Z,15.15
2023-01-04T20:29:19.064Z,15.10
2023-01-04T20:34:14.651Z,14.30
2023-01-04T20:36:43.573Z,14.90
2023-01-04T20:39:13.823Z,14.43
2023-01-04T20:42:01.526Z,14.02
2023-01-04T20:44:30.148Z,14.60
2023-01-04T20:47:03.799Z,15.15
2023-01-04T20:49:31.357Z,14.05
2023-01-04T20:51:58.745Z,13.73
2023-01-04T20:54:26.262Z,14.05
2023-01-04T20:56:53.966Z,13.00
2023-01-04T20:59:21.956Z,13.93
2023-01-04T21:01:49.969Z,13.02
2023-01-04T21:04:17.792Z,16.25
2023-01-04T21:06:45.569Z,13.32
2023-01-04T21:09:13.069Z,12.65
2023-01-04T21:11:45.233Z,12.98
2023-01-04T21:14:21.798Z,11.73
2023-01-04T21:16:50.529Z,12.10
2023-01-04T21:19:19.589Z,11.82
2023-01-04T21:21:48.424Z,10.68
2023-01-04T21:24:22.131Z,11.38
2023-01-04T21:26:50.935Z,10.45
2023-01-04T21:29:18.517Z,9.77
2023-01-04T21:31:48.092Z,9.23
2023-01-04T21:34:22.663Z,9.02
2023-01-04T21:36:53.981Z,9.38
2023-01-04T21:39:28.448Z,8.90
2023-01-04T21:42:04.278Z,9.23
2023-01-04T21:44:35.573Z,10.88
2023-01-04T21:47:05.645Z,8.98
2023-01-04T21:49:33.469Z,9.73
2023-01-04T21:52:03.953Z,9.82
2023-01-04T21:54:32.365Z,10.38
2023-01-04T21:56:59.783Z,9.27
2023-01-04T21:59:35.710Z,9.27
2023-01-04T22:02:07.303Z,10.02
2023-01-04T22:04:37.537Z,8.93
2023-01-04T22:07:06.379Z,10.07
2023-01-04T22:09:35.923Z,9.25
2023-01-04T22:12:08.965Z,10.00
2023-01-04T22:14:59.069Z,9.68
2023-01-04T22:17:36.404Z,9.93
2023-01-04T22:20:08.799Z,8.63
2023-01-04T22:22:38.962Z,9.57
2023-01-04T22:25:08.863Z,10.00
2023-01-04T22:27:36.452Z,9.25
2023-01-04T22:30:08.996Z,9.43
2023-01-04T22:32:36.963Z,9.75
2023-01-04T22:35:08.720Z,8.77
2023-01-04T22:37:38.139Z,9.50
2023-01-04T22:40:07.318Z,8.88
2023-01-04T22:42:35.202Z,9.55
2023-01-04T22:45:09.492Z,9.55
2023-01-04T22:47:46.491Z,8.85
2023-01-04T22:50:15.209Z,8.27
2023-01-04T22:55:18.945Z,8.88
2023-01-04T22:57:47.688Z,8.45
2023-01-04T23:00:16.171Z,8.85
2023-01-04T23:02:51.196Z,8.38
2023-01-04T23:05:19.731Z,8.77
2023-01-04T23:07:47.933Z,8.63
2023-01-04T23:10:15.427Z,9.52
2023-01-04T23:12:46.220Z,8.98
2023-01-04T23:15:13.500Z,9.35
2023-01-04T23:17:41.157Z,8.20
2023-01-04T23:20:10.652Z,8.20
2023-01-04T23:22:42.450Z,8.30
2023-01-04T23:25:10.154Z,8.52
2023-01-04T23:27:37.617Z,8.70
2023-01-04T23:30:07.209Z,8.85
2023-01-04T23:32:34.541Z,8.50
2023-01-04T23:35:08.752Z,9.57
2023-01-04T23:37:39.582Z,7.75
2023-01-04T23:40:07.474Z,8.30
2023-01-04T23:42:39.678Z,8.57
2023-01-04T23:45:12.369Z,7.82
2023-01-04T23:47:39.846Z,8.93
2023-01-04T23:50:15.752Z,8.90
2023-01-04T23:52:43.096Z,10.32
2023-01-04T23:55:10.720Z,8.63
2023-01-04T23:57:38.280Z,8.90
